createdAt,value
2017-10-25T00:00:01.491Z,2.40
2017-10-25T00:02:30.000Z,2.20
2017-10-25T00:04:58.345Z,2.13
2017-10-25T00:07:26.751Z,2.40
2017-10-25T00:09:55.037Z,2.07
2017-10-25T00:12:23.407Z,2.83
2017-10-25T00:14:51.699Z,2.00
2017-10-25T00:17:20.031Z,2.10
2017-10-25T00:19:48.295Z,2.60
2017-10-25T00:22:16.627Z,2.40
2017-10-25T00:24:44.890Z,2.20
2017-10-25T00:27:13.377Z,2.30
2017-10-25T00:29:41.699Z,2.40
2017-10-25T00:32:10.128Z,2.30
2017-10-25T00:34:38.796Z,1.97
2017-10-25T00:37:07.128Z,2.10
2017-10-25T00:39:35.412Z,2.33
2017-10-25T00:42:03.873Z,2.30
2017-10-25T00:44:32.396Z,2.30
2017-10-25T00:47:00.821Z,2.27
2017-10-25T00:49:29.271Z,2.13
2017-10-25T00:51:57.631Z,2.10
2017-10-25T00:54:26.023Z,2.17
2017-10-25T00:56:54.376Z,2.33
2017-10-25T00:59:22.666Z,1.90
2017-10-25T01:01:51.012Z,2.47
2017-10-25T01:04:19.439Z,2.10
2017-10-25T01:06:47.931Z,2.00
2017-10-25T01:09:16.399Z,2.13
2017-10-25T01:11:44.695Z,2.27
2017-10-25T01:14:13.142Z,2.07
2017-10-25T01:16:41.461Z,2.03
2017-10-25T01:19:09.895Z,2.10
2017-10-25T01:21:38.233Z,2.03
2017-10-25T01:24:06.659Z,2.23
2017-10-25T01:26:35.141Z,1.90
2017-10-25T01:29:03.454Z,2.07
2017-10-25T01:31:31.759Z,2.27
2017-10-25T01:34:00.069Z,2.60
2017-10-25T01:36:28.504Z,2.43
2017-10-25T01:38:56.795Z,2.10
2017-10-25T01:41:25.075Z,2.13
2017-10-25T01:43:53.432Z,2.00
2017-10-25T01:46:21.775Z,2.10
2017-10-25T01:48:50.268Z,1.87
2017-10-25T01:51:18.751Z,2.03
2017-10-25T01:53:47.047Z,2.20
2017-10-25T01:56:15.369Z,2.30
2017-10-25T01:58:43.647Z,1.93
2017-10-25T02:01:11.941Z,2.10
2017-10-25T02:03:40.400Z,2.47
2017-10-25T02:06:08.709Z,2.10
2017-10-25T02:08:36.988Z,2.40
2017-10-25T02:11:05.283Z,1.90
2017-10-25T02:13:33.585Z,2.23
2017-10-25T02:16:01.892Z,2.30
2017-10-25T02:18:30.183Z,2.20
2017-10-25T02:20:59.577Z,2.23
2017-10-25T02:23:27.847Z,2.07
2017-10-25T02:25:56.255Z,2.10
2017-10-25T02:28:24.690Z,1.90
2017-10-25T02:30:53.011Z,2.27
2017-10-25T02:33:21.293Z,2.10
2017-10-25T02:35:49.599Z,2.20
2017-10-25T02:38:18.024Z,2.13
2017-10-25T02:40:46.324Z,1.80
2017-10-25T02:43:14.605Z,1.80
2017-10-25T02:45:42.904Z,2.60
2017-10-25T02:48:10.275Z,2.43
2017-10-25T02:50:38.416Z,2.40
2017-10-25T02:53:06.695Z,1.93
2017-10-25T02:55:34.992Z,1.93
2017-10-25T02:58:03.420Z,1.80
2017-10-25T03:00:31.716Z,2.20
2017-10-25T03:02:59.995Z,1.67
2017-10-25T03:05:28.470Z,1.87
2017-10-25T03:07:56.844Z,2.50
2017-10-25T03:10:25.176Z,2.10
2017-10-25T03:12:53.524Z,2.30
2017-10-25T03:15:21.825Z,2.10
2017-10-25T03:17:50.091Z,2.47
2017-10-25T03:20:18.536Z,2.03
2017-10-25T03:22:46.802Z,2.00
2017-10-25T03:25:15.228Z,2.23
2017-10-25T03:27:43.512Z,2.17
2017-10-25T03:30:11.803Z,2.30
2017-10-25T03:32:40.071Z,2.30
2017-10-25T03:35:08.412Z,2.00
2017-10-25T03:37:36.735Z,2.00
2017-10-25T03:40:05.255Z,2.10
2017-10-25T03:42:33.579Z,2.20
2017-10-25T03:45:01.845Z,1.83
2017-10-25T03:47:30.207Z,2.30
2017-10-25T03:49:58.558Z,2.10
2017-10-25T03:52:26.897Z,2.40
2017-10-25T03:54:55.320Z,2.23
2017-10-25T03:57:22.699Z,2.23
2017-10-25T03:59:50.823Z,2.23
2017-10-25T04:02:19.141Z,2.20
2017-10-25T04:04:47.429Z,2.10
2017-10-25T04:07:15.767Z,2.40
2017-10-25T04:09:44.064Z,2.20
2017-10-25T04:12:12.380Z,2.30
2017-10-25T04:14:40.676Z,2.23
2017-10-25T04:17:09.075Z,2.20
2017-10-25T04:19:37.358Z,2.30
2017-10-25T04:22:05.676Z,1.97
2017-10-25T04:24:34.108Z,2.17
2017-10-25T04:27:02.443Z,1.90
2017-10-25T04:29:30.852Z,2.30
2017-10-25T04:31:59.156Z,2.40
2017-10-25T04:34:27.424Z,1.87
2017-10-25T04:36:55.741Z,2.20
2017-10-25T04:39:24.034Z,2.30
2017-10-25T04:41:52.413Z,2.40
2017-10-25T04:44:20.700Z,2.20
2017-10-25T04:46:49.023Z,2.20
2017-10-25T04:49:17.333Z,2.40
2017-10-25T04:51:45.683Z,2.17
2017-10-25T04:54:14.022Z,2.10
2017-10-25T04:56:42.344Z,2.43
2017-10-25T04:59:10.693Z,2.83
2017-10-25T05:01:39.032Z,2.50
2017-10-25T05:04:07.391Z,2.90
2017-10-25T05:06:35.800Z,2.73
2017-10-25T05:09:04.235Z,3.00
2017-10-25T05:11:32.588Z,2.90
2017-10-25T05:14:00.894Z,3.20
2017-10-25T05:16:29.192Z,3.00
2017-10-25T05:18:57.469Z,2.70
2017-10-25T05:21:25.781Z,3.00
2017-10-25T05:23:54.106Z,2.70
2017-10-25T05:26:22.460Z,3.20
2017-10-25T05:28:50.748Z,3.00
2017-10-25T05:31:19.046Z,2.63
2017-10-25T05:33:47.412Z,3.10
2017-10-25T05:36:15.734Z,3.20
2017-10-25T05:38:44.110Z,2.80
2017-10-25T05:41:12.728Z,3.87
2017-10-25T05:43:40.980Z,3.77
2017-10-25T05:46:09.288Z,4.03
2017-10-25T05:48:37.638Z,4.73
2017-10-25T05:51:12.464Z,4.50
2017-10-25T05:53:40.819Z,4.80
2017-10-25T05:56:09.123Z,6.10
2017-10-25T05:58:37.416Z,6.07
2017-10-25T06:01:05.732Z,8.30
2017-10-25T06:03:34.163Z,7.50
2017-10-25T06:06:03.248Z,7.70
2017-10-25T06:08:31.718Z,7.40
2017-10-25T06:11:00.045Z,7.53
2017-10-25T06:13:28.309Z,6.80
2017-10-25T06:15:56.643Z,8.43
2017-10-25T06:18:24.978Z,7.60
2017-10-25T06:20:53.560Z,7.70
2017-10-25T06:23:21.865Z,7.60
2017-10-25T06:25:51.366Z,7.40
2017-10-25T06:28:22.115Z,7.50
2017-10-25T06:30:50.456Z,7.17
2017-10-25T06:33:18.742Z,6.73
2017-10-25T06:35:47.063Z,6.13
2017-10-25T06:38:15.372Z,6.27
2017-10-25T06:40:43.756Z,6.50
2017-10-25T06:43:12.077Z,6.00
2017-10-25T06:45:40.412Z,6.20
2017-10-25T06:48:08.684Z,5.90
2017-10-25T06:50:37.016Z,5.17
2017-10-25T06:53:05.307Z,4.87
2017-10-25T06:55:33.851Z,5.00
2017-10-25T06:58:02.135Z,4.90
2017-10-25T07:00:30.453Z,5.37
2017-10-25T07:02:58.761Z,4.67
2017-10-25T07:05:27.540Z,5.63
2017-10-25T07:07:56.042Z,5.00
2017-10-25T07:10:24.575Z,5.20
2017-10-25T07:12:53.050Z,4.70
2017-10-25T07:15:21.427Z,5.37
2017-10-25T07:17:49.703Z,4.90
2017-10-25T07:20:18.020Z,4.97
2017-10-25T07:22:46.295Z,4.70
2017-10-25T07:25:14.644Z,4.50
2017-10-25T07:27:42.912Z,4.37
2017-10-25T07:30:11.231Z,4.90
2017-10-25T07:32:39.495Z,4.20
2017-10-25T07:35:07.911Z,4.63
2017-10-25T07:37:36.207Z,4.10
2017-10-25T07:40:05.132Z,4.67
2017-10-25T07:42:33.423Z,4.00
2017-10-25T07:45:01.700Z,3.80
2017-10-25T07:47:30.064Z,4.30
2017-10-25T07:49:58.589Z,3.73
2017-10-25T07:52:26.947Z,3.43
2017-10-25T07:54:55.375Z,3.80
2017-10-25T07:57:23.879Z,3.60
2017-10-25T07:59:52.159Z,3.90
2017-10-25T08:02:20.459Z,3.73
2017-10-25T08:04:48.792Z,3.47
2017-10-25T08:07:17.097Z,3.40
2017-10-25T08:09:45.547Z,3.73
2017-10-25T08:12:14.047Z,3.93
2017-10-25T08:14:42.543Z,3.47
2017-10-25T08:17:10.867Z,2.70
2017-10-25T08:19:39.156Z,3.13
2017-10-25T08:22:07.786Z,3.50
2017-10-25T08:24:36.082Z,3.33
2017-10-25T08:27:04.376Z,2.60
2017-10-25T08:29:32.636Z,3.27
2017-10-25T08:32:00.952Z,3.03
2017-10-25T08:34:29.307Z,2.93
2017-10-25T08:36:57.623Z,3.50
2017-10-25T08:39:25.936Z,3.30
2017-10-25T08:41:54.392Z,3.50
2017-10-25T08:44:22.696Z,3.57
2017-10-25T08:46:51.004Z,3.93
2017-10-25T08:49:19.304Z,3.53
2017-10-25T08:51:47.607Z,3.53
2017-10-25T08:54:15.952Z,3.50
2017-10-25T08:56:44.248Z,2.70
2017-10-25T08:59:13.371Z,3.00
2017-10-25T09:01:41.720Z,3.07
2017-10-25T09:04:10.030Z,2.93
2017-10-25T09:06:38.579Z,3.93
2017-10-25T09:09:07.028Z,3.07
2017-10-25T09:11:35.335Z,2.93
2017-10-25T09:14:03.636Z,3.00
2017-10-25T09:16:32.504Z,3.40
2017-10-25T09:19:01.924Z,2.97
2017-10-25T09:21:30.660Z,2.77
2017-10-25T09:23:59.223Z,2.47
2017-10-25T09:26:27.736Z,2.50
2017-10-25T09:28:56.104Z,2.50
2017-10-25T09:31:24.588Z,2.50
2017-10-25T09:33:53.279Z,2.20
2017-10-25T09:36:21.915Z,2.30
2017-10-25T09:38:50.767Z,2.70
2017-10-25T09:41:19.109Z,2.60
2017-10-25T09:43:47.543Z,2.57
2017-10-25T09:46:16.005Z,2.30
2017-10-25T09:48:44.564Z,2.63
2017-10-25T09:51:13.039Z,2.40
2017-10-25T09:53:41.523Z,2.60
2017-10-25T09:56:09.832Z,2.40
2017-10-25T09:58:38.136Z,2.40
2017-10-25T10:01:07.438Z,2.20
2017-10-25T10:03:35.757Z,2.23
2017-10-25T10:06:04.627Z,2.10
2017-10-25T10:08:31.989Z,2.30
2017-10-25T10:11:00.142Z,2.63
2017-10-25T10:13:28.419Z,2.40
2017-10-25T10:15:56.755Z,2.17
2017-10-25T10:18:25.228Z,2.13
2017-10-25T10:20:53.539Z,2.50
2017-10-25T10:23:21.837Z,1.87
2017-10-25T10:25:50.309Z,1.90
2017-10-25T10:28:18.659Z,2.10
2017-10-25T10:30:47.056Z,2.17
2017-10-25T10:33:15.405Z,2.00
2017-10-25T10:35:43.726Z,2.40
2017-10-25T10:38:12.000Z,1.90
2017-10-25T10:40:41.213Z,2.10
2017-10-25T10:43:09.562Z,2.10
2017-10-25T10:45:37.929Z,2.17
2017-10-25T10:48:06.225Z,2.10
2017-10-25T10:50:34.532Z,2.00
2017-10-25T10:53:03.051Z,2.67
2017-10-25T10:55:31.365Z,2.10
2017-10-25T10:58:03.915Z,1.93
2017-10-25T11:00:33.467Z,2.37
2017-10-25T11:03:02.680Z,1.73
2017-10-25T11:05:30.984Z,2.53
2017-10-25T11:07:59.353Z,2.27
2017-10-25T11:10:27.949Z,1.70
2017-10-25T11:12:56.305Z,2.13
2017-10-25T11:15:24.807Z,1.93
2017-10-25T11:17:53.204Z,2.37
2017-10-25T11:20:22.497Z,1.97
2017-10-25T11:22:50.820Z,1.80
2017-10-25T11:25:20.397Z,2.17
2017-10-25T11:27:48.684Z,1.80
2017-10-25T11:30:17.011Z,1.87
2017-10-25T11:32:45.540Z,1.70
2017-10-25T11:35:13.972Z,1.87
2017-10-25T11:37:47.959Z,1.77
2017-10-25T11:40:16.367Z,2.00
2017-10-25T11:42:44.657Z,1.77
2017-10-25T11:45:13.262Z,2.03
2017-10-25T11:47:41.723Z,2.00
2017-10-25T11:50:10.291Z,2.00
2017-10-25T11:52:38.716Z,1.53
2017-10-25T11:55:07.926Z,1.90
2017-10-25T11:57:36.251Z,1.90
2017-10-25T12:00:06.200Z,1.80
2017-10-25T12:02:34.782Z,2.00
2017-10-25T12:05:03.134Z,1.80
2017-10-25T12:07:33.087Z,2.00
2017-10-25T12:10:01.388Z,1.80
2017-10-25T12:12:29.767Z,1.70
2017-10-25T12:14:58.151Z,1.93
2017-10-25T12:17:26.503Z,1.43
2017-10-25T12:19:54.907Z,1.60
2017-10-25T12:22:23.371Z,1.90
2017-10-25T12:24:51.647Z,1.97
2017-10-25T12:27:20.147Z,1.80
2017-10-25T12:29:48.481Z,1.60
2017-10-25T12:32:16.964Z,1.63
2017-10-25T12:34:45.378Z,1.37
2017-10-25T12:37:13.883Z,1.60
2017-10-25T12:39:42.328Z,1.50
2017-10-25T12:42:10.669Z,1.60
2017-10-25T12:44:38.956Z,1.50
2017-10-25T12:47:07.437Z,1.67
2017-10-25T12:49:35.853Z,1.73
2017-10-25T12:52:04.868Z,2.10
2017-10-25T12:54:33.229Z,1.60
2017-10-25T12:57:01.751Z,2.63
2017-10-25T12:59:30.211Z,1.83
2017-10-25T13:01:58.675Z,2.20
2017-10-25T13:04:27.168Z,2.10
2017-10-25T13:06:55.489Z,2.20
2017-10-25T13:09:24.030Z,2.23
2017-10-25T13:12:01.661Z,2.20
